sensor_id;sensor_type;location;lat;lon;timestamp;P1;durP1;ratioP1;P2;durP2;ratioP2
56181;SDS011;51963;46.052;14.544;2022-12-18T00:00:40;53.85;;;21.35;;
56181;SDS011;51963;46.052;14.544;2022-12-18T00:03:07;50.88;;;19.15;;
56181;SDS011;51963;46.052;14.544;2022-12-18T00:05:33;39.33;;;16.00;;
56181;SDS011;51963;46.052;14.544;2022-12-18T00:07:58;34.05;;;15.20;;
56181;SDS011;51963;46.052;14.544;2022-12-18T00:10:24;33.65;;;15.77;;
56181;SDS011;51963;46.052;14.544;2022-12-18T00:12:50;30.50;;;14.20;;
56181;SDS011;51963;46.052;14.544;2022-12-18T00:15:16;34.17;;;15.05;;
56181;SDS011;51963;46.052;14.544;2022-12-18T00:17:42;33.03;;;14.77;;
56181;SDS011;51963;46.052;14.544;2022-12-18T00:20:08;33.13;;;14.77;;
56181;SDS011;51963;46.052;14.544;2022-12-18T00:22:34;36.35;;;16.02;;
56181;SDS011;51963;46.052;14.544;2022-12-18T00:24:59;29.88;;;14.75;;
56181;SDS011;51963;46.052;14.544;2022-12-18T00:27:25;31.27;;;15.10;;
56181;SDS011;51963;46.052;14.544;2022-12-18T00:29:51;30.42;;;13.70;;
56181;SDS011;51963;46.052;14.544;2022-12-18T00:32:16;35.20;;;15.32;;
56181;SDS011;51963;46.052;14.544;2022-12-18T00:34:42;35.45;;;14.70;;
56181;SDS011;51963;46.052;14.544;2022-12-18T00:37:08;36.90;;;15.00;;
56181;SDS011;51963;46.052;14.544;2022-12-18T00:39:34;34.70;;;15.25;;
56181;SDS011;51963;46.052;14.544;2022-12-18T00:42:00;35.10;;;15.65;;
56181;SDS011;51963;46.052;14.544;2022-12-18T00:44:44;36.22;;;14.57;;
56181;SDS011;51963;46.052;14.544;2022-12-18T00:47:10;31.63;;;14.82;;
56181;SDS011;51963;46.052;14.544;2022-12-18T00:49:36;33.72;;;15.38;;
56181;SDS011;51963;46.052;14.544;2022-12-18T00:52:01;36.38;;;17.08;;
56181;SDS011;51963;46.052;14.544;2022-12-18T00:54:27;36.35;;;16.58;;
56181;SDS011;51963;46.052;14.544;2022-12-18T00:56:53;37.42;;;16.83;;
56181;SDS011;51963;46.052;14.544;2022-12-18T00:59:20;34.13;;;16.92;;
56181;SDS011;51963;46.052;14.544;2022-12-18T01:01:46;40.15;;;17.02;;
56181;SDS011;51963;46.052;14.544;2022-12-18T01:04:12;40.78;;;17.20;;
56181;SDS011;51963;46.052;14.544;2022-12-18T01:06:38;40.53;;;16.30;;
56181;SDS011;51963;46.052;14.544;2022-12-18T01:09:03;32.72;;;14.88;;
56181;SDS011;51963;46.052;14.544;2022-12-18T01:11:29;35.20;;;15.80;;
56181;SDS011;51963;46.052;14.544;2022-12-18T01:13:55;36.42;;;16.00;;
56181;SDS011;51963;46.052;14.544;2022-12-18T01:16:22;34.85;;;15.65;;
56181;SDS011;51963;46.052;14.544;2022-12-18T01:18:50;34.92;;;15.90;;
56181;SDS011;51963;46.052;14.544;2022-12-18T01:21:18;41.58;;;17.75;;
56181;SDS011;51963;46.052;14.544;2022-12-18T01:23:44;32.63;;;15.60;;
56181;SDS011;51963;46.052;14.544;2022-12-18T01:26:11;34.92;;;14.32;;
56181;SDS011;51963;46.052;14.544;2022-12-18T01:28:39;29.27;;;13.45;;
56181;SDS011;51963;46.052;14.544;2022-12-18T01:31:12;34.67;;;14.68;;
56181;SDS011;51963;46.052;14.544;2022-12-18T01:33:38;35.30;;;15.20;;
56181;SDS011;51963;46.052;14.544;2022-12-18T01:36:05;35.80;;;15.65;;
56181;SDS011;51963;46.052;14.544;2022-12-18T01:38:31;33.33;;;14.85;;
56181;SDS011;51963;46.052;14.544;2022-12-18T01:40:58;36.50;;;14.75;;
56181;SDS011;51963;46.052;14.544;2022-12-18T01:43:42;29.85;;;13.27;;
56181;SDS011;51963;46.052;14.544;2022-12-18T01:46:14;32.20;;;14.02;;
56181;SDS011;51963;46.052;14.544;2022-12-18T01:48:41;31.05;;;14.35;;
56181;SDS011;51963;46.052;14.544;2022-12-18T01:51:09;32.58;;;13.82;;
56181;SDS011;51963;46.052;14.544;2022-12-18T01:53:36;32.92;;;14.35;;
56181;SDS011;51963;46.052;14.544;2022-12-18T01:56:04;31.70;;;13.80;;
56181;SDS011;51963;46.052;14.544;2022-12-18T01:58:40;26.02;;;12.35;;
56181;SDS011;51963;46.052;14.544;2022-12-18T02:01:07;33.42;;;15.10;;
56181;SDS011;51963;46.052;14.544;2022-12-18T02:03:33;32.70;;;13.95;;
56181;SDS011;51963;46.052;14.544;2022-12-18T02:28:04;34.40;;;15.65;;
56181;SDS011;51963;46.052;14.544;2022-12-18T02:30:35;46.72;;;17.63;;
56181;SDS011;51963;46.052;14.544;2022-12-18T02:33:04;32.53;;;15.38;;
56181;SDS011;51963;46.052;14.544;2022-12-18T02:35:33;41.13;;;15.93;;
56181;SDS011;51963;46.052;14.544;2022-12-18T02:38:01;37.30;;;16.13;;
56181;SDS011;51963;46.052;14.544;2022-12-18T02:40:32;33.85;;;15.68;;
56181;SDS011;51963;46.052;14.544;2022-12-18T02:43:14;35.88;;;14.95;;
56181;SDS011;51963;46.052;14.544;2022-12-18T02:45:48;38.85;;;15.60;;
56181;SDS011;51963;46.052;14.544;2022-12-18T02:48:23;38.90;;;15.48;;
56181;SDS011;51963;46.052;14.544;2022-12-18T02:51:21;34.58;;;14.98;;
56181;SDS011;51963;46.052;14.544;2022-12-18T02:53:51;33.17;;;14.90;;
56181;SDS011;51963;46.052;14.544;2022-12-18T02:56:31;32.80;;;14.95;;
56181;SDS011;51963;46.052;14.544;2022-12-18T02:59:08;34.15;;;14.80;;
56181;SDS011;51963;46.052;14.544;2022-12-18T03:01:55;36.55;;;15.50;;
56181;SDS011;51963;46.052;14.544;2022-12-18T03:04:26;39.88;;;15.00;;
56181;SDS011;51963;46.052;14.544;2022-12-18T03:06:57;41.65;;;16.40;;
56181;SDS011;51963;46.052;14.544;2022-12-18T03:09:36;38.10;;;15.73;;
56181;SDS011;51963;46.052;14.544;2022-12-18T03:12:10;37.35;;;15.18;;
56181;SDS011;51963;46.052;14.544;2022-12-18T03:15:10;35.33;;;15.77;;
56181;SDS011;51963;46.052;14.544;2022-12-18T03:17:39;31.38;;;14.23;;
56181;SDS011;51963;46.052;14.544;2022-12-18T03:20:12;39.67;;;16.27;;
56181;SDS011;51963;46.052;14.544;2022-12-18T03:22:41;38.20;;;15.20;;
56181;SDS011;51963;46.052;14.544;2022-12-18T03:25:10;36.60;;;15.63;;
56181;SDS011;51963;46.052;14.544;2022-12-18T03:27:42;36.30;;;15.75;;
56181;SDS011;51963;46.052;14.544;2022-12-18T03:30:15;36.45;;;15.40;;
56181;SDS011;51963;46.052;14.544;2022-12-18T03:35:16;35.45;;;14.95;;
56181;SDS011;51963;46.052;14.544;2022-12-18T03:37:51;39.08;;;15.27;;
56181;SDS011;51963;46.052;14.544;2022-12-18T03:40:17;37.30;;;14.60;;
56181;SDS011;51963;46.052;14.544;2022-12-18T03:42:47;37.63;;;14.85;;
56181;SDS011;51963;46.052;14.544;2022-12-18T03:45:20;35.45;;;14.90;;
56181;SDS011;51963;46.052;14.544;2022-12-18T03:48:07;37.33;;;15.35;;
56181;SDS011;51963;46.052;14.544;2022-12-18T03:53:36;35.25;;;15.10;;
56181;SDS011;51963;46.052;14.544;2022-12-18T03:56:22;34.45;;;14.38;;
56181;SDS011;51963;46.052;14.544;2022-12-18T03:58:54;32.65;;;14.55;;
56181;SDS011;51963;46.052;14.544;2022-12-18T04:01:30;38.65;;;14.68;;
56181;SDS011;51963;46.052;14.544;2022-12-18T04:03:59;36.30;;;14.40;;
56181;SDS011;51963;46.052;14.544;2022-12-18T04:06:28;37.03;;;14.73;;
56181;SDS011;51963;46.052;14.544;2022-12-18T04:08:57;35.23;;;14.90;;
56181;SDS011;51963;46.052;14.544;2022-12-18T04:13:50;37.22;;;14.45;;
56181;SDS011;51963;46.052;14.544;2022-12-18T04:16:22;33.97;;;14.32;;
56181;SDS011;51963;46.052;14.544;2022-12-18T04:18:51;33.28;;;14.00;;
56181;SDS011;51963;46.052;14.544;2022-12-18T04:21:18;34.85;;;15.77;;
56181;SDS011;51963;46.052;14.544;2022-12-18T04:23:46;37.42;;;14.65;;
56181;SDS011;51963;46.052;14.544;2022-12-18T04:26:12;36.88;;;15.18;;
56181;SDS011;51963;46.052;14.544;2022-12-18T04:28:46;37.97;;;15.68;;
56181;SDS011;51963;46.052;14.544;2022-12-18T04:31:12;39.15;;;16.10;;
56181;SDS011;51963;46.052;14.544;2022-12-18T04:33:38;38.20;;;16.60;;
56181;SDS011;51963;46.052;14.544;2022-12-18T04:36:05;38.40;;;15.45;;
56181;SDS011;51963;46.052;14.544;2022-12-18T04:38:31;35.85;;;15.23;;
56181;SDS011;51963;46.052;14.544;2022-12-18T04:41:04;34.65;;;14.65;;
56181;SDS011;51963;46.052;14.544;2022-12-18T04:43:30;36.63;;;15.60;;
56181;SDS011;51963;46.052;14.544;2022-12-18T04:46:07;37.97;;;15.68;;
56181;SDS011;51963;46.052;14.544;2022-12-18T04:48:33;33.75;;;14.82;;
56181;SDS011;51963;46.052;14.544;2022-12-18T04:51:01;34.90;;;15.30;;
56181;SDS011;51963;46.052;14.544;2022-12-18T04:53:27;44.20;;;16.60;;
56181;SDS011;51963;46.052;14.544;2022-12-18T04:56:02;39.95;;;16.15;;
56181;SDS011;51963;46.052;14.544;2022-12-18T04:58:39;40.47;;;16.13;;
56181;SDS011;51963;46.052;14.544;2022-12-18T05:01:06;38.80;;;15.10;;
56181;SDS011;51963;46.052;14.544;2022-12-18T05:03:33;43.15;;;16.65;;
56181;SDS011;51963;46.052;14.544;2022-12-18T05:05:59;39.00;;;15.80;;
56181;SDS011;51963;46.052;14.544;2022-12-18T05:08:24;40.22;;;16.17;;
56181;SDS011;51963;46.052;14.544;2022-12-18T05:10:57;37.90;;;15.52;;
56181;SDS011;51963;46.052;14.544;2022-12-18T05:13:24;37.63;;;15.13;;
56181;SDS011;51963;46.052;14.544;2022-12-18T05:15:52;39.38;;;15.23;;
56181;SDS011;51963;46.052;14.544;2022-12-18T05:18:19;42.60;;;17.13;;
56181;SDS011;51963;46.052;14.544;2022-12-18T05:20:45;39.22;;;16.02;;
56181;SDS011;51963;46.052;14.544;2022-12-18T05:23:10;40.50;;;16.65;;
56181;SDS011;51963;46.052;14.544;2022-12-18T05:25:36;40.42;;;16.40;;
56181;SDS011;51963;46.052;14.544;2022-12-18T05:28:02;36.95;;;14.38;;
56181;SDS011;51963;46.052;14.544;2022-12-18T05:30:27;36.67;;;15.77;;
56181;SDS011;51963;46.052;14.544;2022-12-18T05:32:53;38.42;;;15.52;;
56181;SDS011;51963;46.052;14.544;2022-12-18T05:35:19;38.83;;;15.57;;
56181;SDS011;51963;46.052;14.544;2022-12-18T05:37:45;35.80;;;15.95;;
56181;SDS011;51963;46.052;14.544;2022-12-18T05:40:11;39.33;;;15.90;;
56181;SDS011;51963;46.052;14.544;2022-12-18T05:42:37;37.88;;;15.48;;
56181;SDS011;51963;46.052;14.544;2022-12-18T05:45:03;35.47;;;15.77;;
56181;SDS011;51963;46.052;14.544;2022-12-18T05:47:30;40.20;;;15.70;;
56181;SDS011;51963;46.052;14.544;2022-12-18T05:49:56;35.95;;;14.55;;
56181;SDS011;51963;46.052;14.544;2022-12-18T05:52:22;35.03;;;15.55;;
56181;SDS011;51963;46.052;14.544;2022-12-18T05:54:47;35.33;;;15.70;;
56181;SDS011;51963;46.052;14.544;2022-12-18T05:57:13;38.53;;;16.10;;
56181;SDS011;51963;46.052;14.544;2022-12-18T05:59:39;38.38;;;15.13;;
56181;SDS011;51963;46.052;14.544;2022-12-18T06:02:04;43.53;;;17.13;;
56181;SDS011;51963;46.052;14.544;2022-12-18T06:04:31;41.63;;;18.42;;
56181;SDS011;51963;46.052;14.544;2022-12-18T06:06:56;45.10;;;19.90;;
56181;SDS011;51963;46.052;14.544;2022-12-18T06:09:22;38.85;;;16.05;;
56181;SDS011;51963;46.052;14.544;2022-12-18T06:11:48;37.75;;;15.57;;
56181;SDS011;51963;46.052;14.544;2022-12-18T06:16:42;34.88;;;14.80;;
56181;SDS011;51963;46.052;14.544;2022-12-18T06:19:12;41.60;;;16.65;;
56181;SDS011;51963;46.052;14.544;2022-12-18T06:21:40;37.30;;;14.98;;
56181;SDS011;51963;46.052;14.544;2022-12-18T06:24:06;37.85;;;16.30;;
56181;SDS011;51963;46.052;14.544;2022-12-18T06:26:32;38.60;;;16.75;;
56181;SDS011;51963;46.052;14.544;2022-12-18T06:28:57;39.40;;;16.52;;
56181;SDS011;51963;46.052;14.544;2022-12-18T06:31:23;37.63;;;15.52;;
56181;SDS011;51963;46.052;14.544;2022-12-18T06:33:49;40.88;;;16.67;;
56181;SDS011;51963;46.052;14.544;2022-12-18T06:36:15;37.30;;;15.70;;
56181;SDS011;51963;46.052;14.544;2022-12-18T06:38:42;35.42;;;14.75;;
56181;SDS011;51963;46.052;14.544;2022-12-18T06:41:15;31.25;;;14.48;;
56181;SDS011;51963;46.052;14.544;2022-12-18T06:43:43;31.85;;;13.73;;
56181;SDS011;51963;46.052;14.544;2022-12-18T06:46:10;32.45;;;15.63;;
56181;SDS011;51963;46.052;14.544;2022-12-18T06:48:36;40.28;;;16.83;;
56181;SDS011;51963;46.052;14.544;2022-12-18T06:51:02;36.50;;;15.50;;
56181;SDS011;51963;46.052;14.544;2022-12-18T06:53:28;42.25;;;16.33;;
56181;SDS011;51963;46.052;14.544;2022-12-18T06:56:01;44.22;;;19.33;;
56181;SDS011;51963;46.052;14.544;2022-12-18T06:58:28;47.38;;;22.73;;
56181;SDS011;51963;46.052;14.544;2022-12-18T07:00:58;54.22;;;25.58;;
56181;SDS011;51963;46.052;14.544;2022-12-18T07:03:28;49.13;;;22.88;;
56181;SDS011;51963;46.052;14.544;2022-12-18T07:05:54;51.25;;;23.42;;
56181;SDS011;51963;46.052;14.544;2022-12-18T07:08:20;49.63;;;22.05;;
56181;SDS011;51963;46.052;14.544;2022-12-18T07:13:15;44.92;;;21.35;;
56181;SDS011;51963;46.052;14.544;2022-12-18T07:15:41;51.95;;;26.00;;
56181;SDS011;51963;46.052;14.544;2022-12-18T07:18:08;58.50;;;25.45;;
56181;SDS011;51963;46.052;14.544;2022-12-18T07:20:34;56.55;;;24.70;;
56181;SDS011;51963;46.052;14.544;2022-12-18T07:23:01;51.40;;;23.67;;
56181;SDS011;51963;46.052;14.544;2022-12-18T07:25:34;47.45;;;21.77;;
56181;SDS011;51963;46.052;14.544;2022-12-18T07:28:00;43.85;;;21.52;;
56181;SDS011;51963;46.052;14.544;2022-12-18T07:30:26;51.75;;;21.98;;
56181;SDS011;51963;46.052;14.544;2022-12-18T07:32:52;47.53;;;22.45;;
56181;SDS011;51963;46.052;14.544;2022-12-18T07:35:18;44.38;;;20.92;;
56181;SDS011;51963;46.052;14.544;2022-12-18T07:37:44;45.70;;;19.80;;
56181;SDS011;51963;46.052;14.544;2022-12-18T07:40:10;41.53;;;20.90;;
56181;SDS011;51963;46.052;14.544;2022-12-18T07:42:36;44.45;;;19.50;;
56181;SDS011;51963;46.052;14.544;2022-12-18T07:45:02;44.10;;;20.63;;
56181;SDS011;51963;46.052;14.544;2022-12-18T07:47:29;40.80;;;18.77;;
56181;SDS011;51963;46.052;14.544;2022-12-18T07:49:56;43.92;;;20.02;;
56181;SDS011;51963;46.052;14.544;2022-12-18T07:52:21;42.10;;;18.75;;
56181;SDS011;51963;46.052;14.544;2022-12-18T07:54:47;43.67;;;21.52;;
56181;SDS011;51963;46.052;14.544;2022-12-18T07:57:16;48.50;;;21.27;;
56181;SDS011;51963;46.052;14.544;2022-12-18T07:59:42;43.90;;;20.85;;
56181;SDS011;51963;46.052;14.544;2022-12-18T08:02:08;42.42;;;19.48;;
56181;SDS011;51963;46.052;14.544;2022-12-18T08:04:34;46.47;;;21.27;;
56181;SDS011;51963;46.052;14.544;2022-12-18T08:06:59;51.97;;;24.45;;
56181;SDS011;51963;46.052;14.544;2022-12-18T08:09:25;42.30;;;20.35;;
56181;SDS011;51963;46.052;14.544;2022-12-18T08:11:52;50.40;;;22.70;;
56181;SDS011;51963;46.052;14.544;2022-12-18T08:14:17;56.40;;;25.85;;
56181;SDS011;51963;46.052;14.544;2022-12-18T08:16:43;53.35;;;25.23;;
56181;SDS011;51963;46.052;14.544;2022-12-18T08:19:09;48.00;;;22.80;;
56181;SDS011;51963;46.052;14.544;2022-12-18T08:21:35;49.13;;;24.55;;
56181;SDS011;51963;46.052;14.544;2022-12-18T08:24:01;55.67;;;25.05;;
56181;SDS011;51963;46.052;14.544;2022-12-18T08:26:27;50.33;;;23.15;;
56181;SDS011;51963;46.052;14.544;2022-12-18T08:28:55;54.90;;;25.13;;
56181;SDS011;51963;46.052;14.544;2022-12-18T08:31:22;57.55;;;25.98;;
56181;SDS011;51963;46.052;14.544;2022-12-18T08:33:49;52.38;;;24.95;;
56181;SDS011;51963;46.052;14.544;2022-12-18T08:36:16;50.60;;;24.55;;
56181;SDS011;51963;46.052;14.544;2022-12-18T08:38:43;44.08;;;19.85;;
56181;SDS011;51963;46.052;14.544;2022-12-18T08:41:09;41.85;;;19.85;;
56181;SDS011;51963;46.052;14.544;2022-12-18T08:43:37;37.30;;;17.30;;
56181;SDS011;51963;46.052;14.544;2022-12-18T08:46:23;40.30;;;17.38;;
56181;SDS011;51963;46.052;14.544;2022-12-18T08:48:50;37.25;;;17.50;;
56181;SDS011;51963;46.052;14.544;2022-12-18T08:51:17;37.45;;;17.08;;
56181;SDS011;51963;46.052;14.544;2022-12-18T08:53:44;40.85;;;16.75;;
56181;SDS011;51963;46.052;14.544;2022-12-18T08:56:10;38.00;;;17.27;;
56181;SDS011;51963;46.052;14.544;2022-12-18T08:58:37;38.88;;;16.50;;
56181;SDS011;51963;46.052;14.544;2022-12-18T09:01:03;37.65;;;17.90;;
56181;SDS011;51963;46.052;14.544;2022-12-18T09:03:31;37.10;;;17.75;;
56181;SDS011;51963;46.052;14.544;2022-12-18T09:05:57;40.17;;;17.83;;
56181;SDS011;51963;46.052;14.544;2022-12-18T09:08:24;39.67;;;16.60;;
56181;SDS011;51963;46.052;14.544;2022-12-18T09:10:51;40.83;;;17.67;;
56181;SDS011;51963;46.052;14.544;2022-12-18T09:13:17;40.20;;;18.60;;
56181;SDS011;51963;46.052;14.544;2022-12-18T09:15:45;39.47;;;18.63;;
56181;SDS011;51963;46.052;14.544;2022-12-18T09:20:40;41.88;;;18.13;;
56181;SDS011;51963;46.052;14.544;2022-12-18T09:23:05;41.22;;;18.23;;
56181;SDS011;51963;46.052;14.544;2022-12-18T09:25:32;39.05;;;17.88;;
56181;SDS011;51963;46.052;14.544;2022-12-18T09:30:31;36.67;;;16.08;;
56181;SDS011;51963;46.052;14.544;2022-12-18T09:33:00;37.75;;;17.17;;
56181;SDS011;51963;46.052;14.544;2022-12-18T09:35:26;40.50;;;17.20;;
56181;SDS011;51963;46.052;14.544;2022-12-18T09:37:53;40.78;;;17.80;;
56181;SDS011;51963;46.052;14.544;2022-12-18T09:40:21;44.55;;;18.48;;
56181;SDS011;51963;46.052;14.544;2022-12-18T09:42:52;40.78;;;19.17;;
56181;SDS011;51963;46.052;14.544;2022-12-18T09:45:22;45.40;;;18.65;;
56181;SDS011;51963;46.052;14.544;2022-12-18T09:47:49;36.85;;;18.00;;
56181;SDS011;51963;46.052;14.544;2022-12-18T09:50:29;37.83;;;17.38;;
56181;SDS011;51963;46.052;14.544;2022-12-18T09:52:59;38.88;;;17.25;;
56181;SDS011;51963;46.052;14.544;2022-12-18T09:55:31;41.20;;;18.33;;
56181;SDS011;51963;46.052;14.544;2022-12-18T09:58:04;40.17;;;18.08;;
56181;SDS011;51963;46.052;14.544;2022-12-18T10:00:38;41.17;;;16.83;;
56181;SDS011;51963;46.052;14.544;2022-12-18T10:03:11;42.08;;;17.70;;
56181;SDS011;51963;46.052;14.544;2022-12-18T10:13:54;41.38;;;17.48;;
56181;SDS011;51963;46.052;14.544;2022-12-18T10:21:38;37.25;;;17.10;;
56181;SDS011;51963;46.052;14.544;2022-12-18T10:24:26;37.03;;;16.30;;
56181;SDS011;51963;46.052;14.544;2022-12-18T10:27:17;29.67;;;14.40;;
56181;SDS011;51963;46.052;14.544;2022-12-18T10:29:46;30.75;;;13.50;;
56181;SDS011;51963;46.052;14.544;2022-12-18T10:32:17;24.58;;;12.00;;
56181;SDS011;51963;46.052;14.544;2022-12-18T10:34:46;22.75;;;11.00;;
56181;SDS011;51963;46.052;14.544;2022-12-18T10:37:20;24.73;;;10.80;;
56181;SDS011;51963;46.052;14.544;2022-12-18T10:42:32;20.85;;;9.57;;
56181;SDS011;51963;46.052;14.544;2022-12-18T10:45:03;19.77;;;9.27;;
56181;SDS011;51963;46.052;14.544;2022-12-18T10:47:33;17.45;;;8.07;;
56181;SDS011;51963;46.052;14.544;2022-12-18T10:50:00;15.63;;;7.55;;
56181;SDS011;51963;46.052;14.544;2022-12-18T10:52:26;17.05;;;7.00;;
56181;SDS011;51963;46.052;14.544;2022-12-18T10:54:57;21.10;;;8.90;;
56181;SDS011;51963;46.052;14.544;2022-12-18T11:00:20;27.00;;;11.60;;
56181;SDS011;51963;46.052;14.544;2022-12-18T11:02:49;29.92;;;10.85;;
56181;SDS011;51963;46.052;14.544;2022-12-18T11:07:57;23.25;;;10.93;;
56181;SDS011;51963;46.052;14.544;2022-12-18T11:10:35;28.85;;;12.30;;
56181;SDS011;51963;46.052;14.544;2022-12-18T11:15:58;26.02;;;10.35;;
56181;SDS011;51963;46.052;14.544;2022-12-18T11:23:21;21.83;;;9.55;;
56181;SDS011;51963;46.052;14.544;2022-12-18T11:25:59;21.85;;;10.20;;
56181;SDS011;51963;46.052;14.544;2022-12-18T11:28:28;25.20;;;10.70;;
56181;SDS011;51963;46.052;14.544;2022-12-18T11:31:20;23.70;;;10.50;;
56181;SDS011;51963;46.052;14.544;2022-12-18T11:36:32;22.80;;;10.27;;
56181;SDS011;51963;46.052;14.544;2022-12-18T11:39:09;24.05;;;9.75;;
56181;SDS011;51963;46.052;14.544;2022-12-18T11:41:52;22.88;;;9.18;;
56181;SDS011;51963;46.052;14.544;2022-12-18T11:50:00;25.52;;;11.02;;
56181;SDS011;51963;46.052;14.544;2022-12-18T11:52:37;26.70;;;10.75;;
56181;SDS011;51963;46.052;14.544;2022-12-18T11:55:10;22.55;;;10.40;;
56181;SDS011;51963;46.052;14.544;2022-12-18T11:57:47;26.38;;;10.98;;
56181;SDS011;51963;46.052;14.544;2022-12-18T12:00:23;24.35;;;11.02;;
56181;SDS011;51963;46.052;14.544;2022-12-18T12:08:39;25.25;;;10.15;;
56181;SDS011;51963;46.052;14.544;2022-12-18T12:14:22;24.60;;;10.32;;
56181;SDS011;51963;46.052;14.544;2022-12-18T12:19:59;23.33;;;10.32;;
56181;SDS011;51963;46.052;14.544;2022-12-18T12:22:52;21.13;;;9.68;;
56181;SDS011;51963;46.052;14.544;2022-12-18T12:31:25;20.67;;;9.43;;
56181;SDS011;51963;46.052;14.544;2022-12-18T12:39:15;19.70;;;8.57;;
56181;SDS011;51963;46.052;14.544;2022-12-18T12:41:46;19.58;;;7.95;;
56181;SDS011;51963;46.052;14.544;2022-12-18T12:44:32;21.77;;;9.27;;
56181;SDS011;51963;46.052;14.544;2022-12-18T12:47:02;18.98;;;8.63;;
56181;SDS011;51963;46.052;14.544;2022-12-18T12:49:36;19.13;;;8.60;;
56181;SDS011;51963;46.052;14.544;2022-12-18T12:52:05;24.60;;;10.45;;
56181;SDS011;51963;46.052;14.544;2022-12-18T12:54:36;23.73;;;10.10;;
56181;SDS011;51963;46.052;14.544;2022-12-18T12:57:08;23.65;;;9.25;;
56181;SDS011;51963;46.052;14.544;2022-12-18T13:08:06;23.15;;;9.32;;
56181;SDS011;51963;46.052;14.544;2022-12-18T13:10:37;21.08;;;9.30;;
56181;SDS011;51963;46.052;14.544;2022-12-18T13:13:09;24.60;;;9.85;;
56181;SDS011;51963;46.052;14.544;2022-12-18T13:15:41;24.92;;;10.35;;
56181;SDS011;51963;46.052;14.544;2022-12-18T13:18:27;23.52;;;9.82;;
56181;SDS011;51963;46.052;14.544;2022-12-18T13:23:25;25.05;;;10.07;;
56181;SDS011;51963;46.052;14.544;2022-12-18T13:25:58;20.88;;;10.07;;
56181;SDS011;51963;46.052;14.544;2022-12-18T13:31:12;22.10;;;9.50;;
56181;SDS011;51963;46.052;14.544;2022-12-18T13:36:43;18.50;;;8.65;;
56181;SDS011;51963;46.052;14.544;2022-12-18T13:39:10;22.00;;;9.77;;
56181;SDS011;51963;46.052;14.544;2022-12-18T13:41:36;22.25;;;9.02;;
56181;SDS011;51963;46.052;14.544;2022-12-18T13:47:01;23.33;;;9.98;;
56181;SDS011;51963;46.052;14.544;2022-12-18T13:49:38;18.67;;;9.07;;
56181;SDS011;51963;46.052;14.544;2022-12-18T13:52:51;24.48;;;9.35;;
56181;SDS011;51963;46.052;14.544;2022-12-18T13:55:01;22.10;;;8.80;;
56181;SDS011;51963;46.052;14.544;2022-12-18T13:57:36;20.35;;;9.52;;
56181;SDS011;51963;46.052;14.544;2022-12-18T14:02:50;19.48;;;8.30;;
56181;SDS011;51963;46.052;14.544;2022-12-18T14:05:31;22.90;;;10.25;;
56181;SDS011;51963;46.052;14.544;2022-12-18T14:08:11;19.95;;;8.55;;
56181;SDS011;51963;46.052;14.544;2022-12-18T14:10:40;22.00;;;9.82;;
56181;SDS011;51963;46.052;14.544;2022-12-18T14:13:23;22.25;;;9.32;;
56181;SDS011;51963;46.052;14.544;2022-12-18T14:15:53;20.65;;;8.70;;
56181;SDS011;51963;46.052;14.544;2022-12-18T14:20:45;24.50;;;10.40;;
56181;SDS011;51963;46.052;14.544;2022-12-18T14:25:51;24.02;;;10.30;;
56181;SDS011;51963;46.052;14.544;2022-12-18T14:28:17;23.55;;;9.80;;
56181;SDS011;51963;46.052;14.544;2022-12-18T14:30:43;25.08;;;10.70;;
56181;SDS011;51963;46.052;14.544;2022-12-18T14:33:11;23.67;;;10.38;;
56181;SDS011;51963;46.052;14.544;2022-12-18T14:36:03;25.17;;;11.43;;
56181;SDS011;51963;46.052;14.544;2022-12-18T14:41:01;26.65;;;10.13;;
56181;SDS011;51963;46.052;14.544;2022-12-18T14:43:29;27.60;;;11.00;;
56181;SDS011;51963;46.052;14.544;2022-12-18T14:45:57;26.45;;;10.48;;
56181;SDS011;51963;46.052;14.544;2022-12-18T14:48:30;24.50;;;11.07;;
56181;SDS011;51963;46.052;14.544;2022-12-18T14:51:00;24.88;;;10.50;;
56181;SDS011;51963;46.052;14.544;2022-12-18T14:53:32;23.20;;;10.80;;
56181;SDS011;51963;46.052;14.544;2022-12-18T14:56:02;24.65;;;10.73;;
56181;SDS011;51963;46.052;14.544;2022-12-18T14:58:29;22.93;;;10.33;;
56181;SDS011;51963;46.052;14.544;2022-12-18T15:00:55;24.40;;;10.32;;
56181;SDS011;51963;46.052;14.544;2022-12-18T15:03:21;24.73;;;10.13;;
56181;SDS011;51963;46.052;14.544;2022-12-18T15:05:47;24.45;;;10.35;;
56181;SDS011;51963;46.052;14.544;2022-12-18T15:11:02;30.23;;;11.90;;
56181;SDS011;51963;46.052;14.544;2022-12-18T15:13:28;30.40;;;13.00;;
56181;SDS011;51963;46.052;14.544;2022-12-18T15:15:55;27.17;;;11.70;;
56181;SDS011;51963;46.052;14.544;2022-12-18T15:18:32;21.52;;;9.43;;
56181;SDS011;51963;46.052;14.544;2022-12-18T15:21:07;24.58;;;9.52;;
56181;SDS011;51963;46.052;14.544;2022-12-18T15:26:13;20.40;;;9.02;;
56181;SDS011;51963;46.052;14.544;2022-12-18T15:28:56;23.17;;;9.18;;
56181;SDS011;51963;46.052;14.544;2022-12-18T15:31:30;18.58;;;8.55;;
56181;SDS011;51963;46.052;14.544;2022-12-18T15:36:25;22.33;;;8.15;;
56181;SDS011;51963;46.052;14.544;2022-12-18T15:38:51;21.33;;;8.45;;
56181;SDS011;51963;46.052;14.544;2022-12-18T15:41:19;20.67;;;8.90;;
56181;SDS011;51963;46.052;14.544;2022-12-18T15:43:50;18.58;;;8.45;;
56181;SDS011;51963;46.052;14.544;2022-12-18T15:46:19;23.35;;;8.80;;
56181;SDS011;51963;46.052;14.544;2022-12-18T15:48:50;22.83;;;9.70;;
56181;SDS011;51963;46.052;14.544;2022-12-18T15:51:18;24.77;;;10.90;;
56181;SDS011;51963;46.052;14.544;2022-12-18T15:53:51;24.30;;;9.60;;
56181;SDS011;51963;46.052;14.544;2022-12-18T15:56:19;20.33;;;8.88;;
56181;SDS011;51963;46.052;14.544;2022-12-18T15:59:08;22.50;;;9.02;;
56181;SDS011;51963;46.052;14.544;2022-12-18T16:01:36;18.20;;;8.55;;
56181;SDS011;51963;46.052;14.544;2022-12-18T16:04:02;20.23;;;9.07;;
56181;SDS011;51963;46.052;14.544;2022-12-18T16:06:28;23.08;;;9.35;;
56181;SDS011;51963;46.052;14.544;2022-12-18T16:08:54;21.00;;;8.73;;
56181;SDS011;51963;46.052;14.544;2022-12-18T16:11:21;23.23;;;9.88;;
56181;SDS011;51963;46.052;14.544;2022-12-18T16:14:45;24.02;;;10.32;;
56181;SDS011;51963;46.052;14.544;2022-12-18T16:16:54;27.08;;;11.27;;
56181;SDS011;51963;46.052;14.544;2022-12-18T16:19:21;26.45;;;10.88;;
56181;SDS011;51963;46.052;14.544;2022-12-18T16:21:47;25.30;;;11.02;;
56181;SDS011;51963;46.052;14.544;2022-12-18T16:24:18;26.60;;;10.93;;
56181;SDS011;51963;46.052;14.544;2022-12-18T16:26:48;23.83;;;10.38;;
56181;SDS011;51963;46.052;14.544;2022-12-18T16:29:16;27.73;;;11.13;;
56181;SDS011;51963;46.052;14.544;2022-12-18T16:31:42;26.95;;;10.90;;
56181;SDS011;51963;46.052;14.544;2022-12-18T16:34:25;24.42;;;11.30;;
56181;SDS011;51963;46.052;14.544;2022-12-18T16:36:54;26.30;;;10.98;;
56181;SDS011;51963;46.052;14.544;2022-12-18T16:39:21;26.27;;;11.20;;
56181;SDS011;51963;46.052;14.544;2022-12-18T16:41:48;29.15;;;11.05;;
56181;SDS011;51963;46.052;14.544;2022-12-18T16:44:15;26.88;;;10.95;;